createdAt,value
2022-11-24T00:00:28.757Z,11.10
2022-11-24T00:01:28.750Z,10.50
2022-11-24T00:02:28.926Z,8.10
2022-11-24T00:03:28.762Z,10.90
2022-11-24T00:04:28.738Z,9.60
2022-11-24T00:05:28.732Z,9.30
2022-11-24T00:06:28.729Z,10.60
2022-11-24T00:07:28.781Z,6.90
2022-11-24T00:08:28.742Z,8.40
2022-11-24T00:09:28.711Z,10.00
2022-11-24T00:10:28.712Z,11.40
2022-11-24T00:11:28.712Z,10.90
2022-11-24T00:12:28.705Z,8.30
2022-11-24T00:13:28.695Z,10.00
2022-11-24T00:14:28.694Z,7.20
2022-11-24T00:15:28.687Z,10.50
2022-11-24T00:16:28.743Z,11.70
2022-11-24T00:17:28.681Z,8.70
2022-11-24T00:18:28.678Z,9.90
2022-11-24T00:19:28.668Z,9.20
2022-11-24T00:20:28.668Z,9.00
2022-11-24T00:21:28.663Z,11.20
2022-11-24T00:22:28.662Z,8.70
2022-11-24T00:23:28.658Z,9.00
2022-11-24T00:24:28.672Z,7.80
2022-11-24T00:25:28.640Z,8.20
2022-11-24T00:26:28.639Z,9.00
2022-11-24T00:27:28.633Z,11.90
2022-11-24T00:28:28.629Z,11.00
2022-11-24T00:29:28.621Z,9.00
2022-11-24T00:30:28.856Z,9.30
2022-11-24T00:31:28.700Z,7.40
2022-11-24T00:32:28.614Z,9.70
2022-11-24T00:33:28.609Z,12.20
2022-11-24T00:34:28.600Z,11.00
2022-11-24T00:35:28.595Z,9.30
2022-11-24T00:36:28.593Z,10.10
2022-11-24T00:37:28.592Z,8.10
2022-11-24T00:38:28.584Z,10.50
2022-11-24T00:39:28.583Z,11.40
2022-11-24T00:40:33.612Z,11.10
2022-11-24T00:41:28.566Z,10.50
2022-11-24T00:42:28.565Z,9.50
2022-11-24T00:43:28.559Z,11.90
2022-11-24T00:44:28.555Z,9.60
2022-11-24T00:45:28.553Z,8.60
2022-11-24T00:46:28.737Z,10.80
2022-11-24T00:47:28.543Z,9.00
2022-11-24T00:48:28.539Z,8.60
2022-11-24T00:49:28.535Z,9.70
2022-11-24T00:50:28.526Z,9.00
2022-11-24T00:51:28.529Z,9.30
2022-11-24T00:52:28.520Z,8.50
2022-11-24T00:53:28.516Z,8.70
2022-11-24T00:54:28.509Z,10.10
2022-11-24T00:55:28.506Z,10.50
2022-11-24T00:56:28.520Z,8.30
2022-11-24T00:57:28.494Z,8.10
2022-11-24T00:58:28.491Z,11.20
2022-11-24T00:59:28.493Z,8.10
2022-11-24T01:00:28.484Z,7.10
2022-11-24T01:01:28.586Z,9.10
2022-11-24T01:02:28.503Z,7.60
2022-11-24T01:03:28.468Z,10.20
2022-11-24T01:04:28.461Z,11.70
2022-11-24T01:05:28.467Z,12.30
2022-11-24T01:06:28.452Z,12.80
2022-11-24T01:07:28.491Z,10.50
2022-11-24T01:08:28.449Z,11.00
2022-11-24T01:09:28.442Z,12.60
2022-11-24T01:10:28.432Z,10.20
2022-11-24T01:11:28.439Z,9.30
2022-11-24T01:12:28.456Z,9.60
2022-11-24T01:13:28.421Z,10.60
2022-11-24T01:14:28.416Z,9.00
2022-11-24T01:15:28.495Z,12.00
2022-11-24T01:16:28.423Z,11.70
2022-11-24T01:17:28.403Z,13.60
2022-11-24T01:18:28.397Z,10.90
2022-11-24T01:19:28.393Z,14.30
2022-11-24T01:20:28.392Z,11.10
2022-11-24T01:21:28.387Z,9.70
2022-11-24T01:22:28.379Z,10.70
2022-11-24T01:23:28.376Z,10.60
2022-11-24T01:24:28.370Z,10.90
2022-11-24T01:25:28.371Z,9.00
2022-11-24T01:26:28.361Z,10.10
2022-11-24T01:27:28.359Z,8.30
2022-11-24T01:28:28.372Z,9.20
2022-11-24T01:29:28.348Z,11.00
2022-11-24T01:30:28.591Z,8.30
2022-11-24T01:31:28.408Z,12.40
2022-11-24T01:32:28.334Z,13.70
2022-11-24T01:33:28.329Z,10.60
2022-11-24T01:34:28.323Z,8.10
2022-11-24T01:35:28.322Z,9.10
2022-11-24T01:36:28.315Z,11.80
2022-11-24T01:37:28.320Z,12.40
2022-11-24T01:38:28.306Z,14.00
2022-11-24T01:39:28.302Z,10.50
2022-11-24T01:40:28.295Z,12.10
2022-11-24T01:41:28.294Z,11.40
2022-11-24T01:42:28.287Z,11.60
2022-11-24T01:43:28.284Z,10.90
2022-11-24T01:44:28.298Z,12.10
2022-11-24T01:45:28.274Z,11.50
2022-11-24T01:46:28.304Z,14.00
2022-11-24T01:47:28.264Z,12.90
2022-11-24T01:48:28.288Z,13.50
2022-11-24T01:49:28.259Z,12.20
2022-11-24T01:50:28.252Z,14.50
2022-11-24T01:51:28.247Z,9.80
2022-11-24T01:52:28.240Z,14.60
2022-11-24T01:53:28.238Z,11.00
2022-11-24T01:54:28.234Z,12.50
2022-11-24T01:55:28.226Z,13.70
2022-11-24T01:56:28.222Z,10.70
2022-11-24T01:57:28.218Z,11.10
2022-11-24T01:58:28.215Z,10.20
2022-11-24T01:59:28.209Z,9.30
2022-11-24T02:00:28.226Z,11.70
2022-11-24T02:01:28.253Z,13.80
2022-11-24T02:02:28.251Z,13.20
2022-11-24T02:03:28.196Z,14.20
2022-11-24T02:04:28.190Z,11.40
2022-11-24T02:05:28.181Z,12.40
2022-11-24T02:06:28.176Z,11.50
2022-11-24T02:07:28.222Z,10.20
2022-11-24T02:08:28.168Z,9.40
2022-11-24T02:09:28.164Z,12.80
2022-11-24T02:10:28.162Z,14.70
2022-11-24T02:11:28.158Z,10.40
2022-11-24T02:12:28.149Z,11.90
2022-11-24T02:13:28.146Z,14.60
2022-11-24T02:14:28.142Z,14.30
2022-11-24T02:15:28.136Z,12.10
2022-11-24T02:16:28.150Z,14.50
2022-11-24T02:17:28.125Z,12.90
2022-11-24T02:18:28.120Z,13.20
2022-11-24T02:19:28.121Z,15.30
2022-11-24T02:20:28.111Z,13.80
2022-11-24T02:21:28.110Z,14.20
2022-11-24T02:22:28.102Z,12.70
2022-11-24T02:23:28.099Z,15.20
2022-11-24T02:24:28.090Z,15.80
2022-11-24T02:25:28.088Z,13.70
2022-11-24T02:26:28.085Z,12.30
2022-11-24T02:27:28.084Z,11.80
2022-11-24T02:28:28.073Z,12.10
2022-11-24T02:29:28.071Z,13.70
2022-11-24T02:30:28.068Z,12.60
2022-11-24T02:31:28.172Z,10.60
2022-11-24T02:32:28.075Z,13.40
2022-11-24T02:33:28.052Z,10.50
2022-11-24T02:34:28.050Z,13.50
2022-11-24T02:35:28.247Z,12.00
2022-11-24T02:36:28.039Z,13.50
2022-11-24T02:37:28.035Z,13.40
2022-11-24T02:38:28.028Z,15.70
2022-11-24T02:39:28.025Z,15.20
2022-11-24T02:40:28.021Z,10.10
2022-11-24T02:41:28.023Z,10.10
2022-11-24T02:42:28.011Z,12.20
2022-11-24T02:43:28.008Z,11.50
2022-11-24T02:44:28.001Z,12.10
2022-11-24T02:45:28.000Z,14.30
2022-11-24T02:46:28.081Z,11.40
2022-11-24T02:47:27.990Z,13.80
2022-11-24T02:48:28.010Z,9.60
2022-11-24T02:49:27.984Z,9.30
2022-11-24T02:50:27.978Z,11.70
2022-11-24T02:51:27.973Z,14.20
2022-11-24T02:52:27.967Z,13.90
2022-11-24T02:53:27.965Z,12.80
2022-11-24T02:54:27.957Z,12.60
2022-11-24T02:55:27.956Z,12.10
2022-11-24T02:56:27.950Z,11.80
2022-11-24T02:57:27.943Z,13.60
2022-11-24T02:58:27.942Z,14.60
2022-11-24T02:59:27.938Z,14.00
2022-11-24T03:00:27.933Z,15.10
2022-11-24T03:01:27.983Z,14.80
2022-11-24T03:02:27.931Z,14.70
2022-11-24T03:03:27.922Z,14.90
2022-11-24T03:04:27.935Z,13.10
2022-11-24T03:05:27.918Z,13.90
2022-11-24T03:06:27.909Z,14.80
2022-11-24T03:07:27.950Z,13.90
2022-11-24T03:08:27.897Z,13.20
2022-11-24T03:09:27.891Z,13.70
2022-11-24T03:10:27.891Z,14.60
2022-11-24T03:11:27.886Z,11.80
2022-11-24T03:12:27.876Z,13.50
2022-11-24T03:13:27.894Z,14.60
2022-11-24T03:14:27.878Z,12.60
2022-11-24T03:15:27.868Z,12.20
2022-11-24T03:16:27.930Z,12.50
2022-11-24T03:17:27.858Z,13.60
2022-11-24T03:18:27.851Z,13.70
2022-11-24T03:19:27.846Z,14.90
2022-11-24T03:20:27.863Z,16.80
2022-11-24T03:21:27.837Z,12.40
2022-11-24T03:22:27.831Z,14.10
2022-11-24T03:23:27.828Z,13.30
2022-11-24T03:24:27.822Z,16.80
2022-11-24T03:25:27.819Z,14.70
2022-11-24T03:26:27.817Z,13.30
2022-11-24T03:27:27.819Z,11.50
2022-11-24T03:28:27.805Z,11.90
2022-11-24T03:29:27.800Z,13.80
2022-11-24T03:30:27.796Z,13.80
2022-11-24T03:31:27.963Z,11.40
2022-11-24T03:32:27.787Z,12.20
2022-11-24T03:33:27.785Z,12.70
2022-11-24T03:34:27.779Z,14.50
2022-11-24T03:35:27.778Z,14.40
2022-11-24T03:36:27.789Z,12.60
2022-11-24T03:37:27.766Z,12.00
2022-11-24T03:38:27.763Z,11.10
2022-11-24T03:39:27.757Z,11.30
2022-11-24T03:40:27.760Z,13.00
2022-11-24T03:41:27.750Z,16.90
2022-11-24T03:42:27.747Z,14.40
2022-11-24T03:43:27.738Z,15.00
2022-11-24T03:44:27.740Z,11.30
2022-11-24T03:45:45.382Z,15.30
2022-11-24T03:46:27.823Z,18.20
2022-11-24T03:47:27.724Z,12.60
2022-11-24T03:48:27.721Z,15.40
2022-11-24T03:49:27.713Z,14.60
2022-11-24T03:50:27.709Z,15.50
2022-11-24T03:51:27.702Z,11.80
2022-11-24T03:52:27.718Z,13.00
2022-11-24T03:53:27.692Z,16.40
2022-11-24T03:54:27.692Z,16.80
2022-11-24T03:55:27.684Z,14.50
2022-11-24T03:56:27.683Z,15.40
2022-11-24T03:57:27.677Z,16.60
2022-11-24T03:58:27.672Z,15.30
2022-11-24T03:59:27.667Z,12.80
2022-11-24T04:00:27.666Z,12.60
2022-11-24T04:01:27.681Z,17.10
2022-11-24T04:02:27.738Z,12.50
2022-11-24T04:03:27.647Z,12.10
2022-11-24T04:04:27.649Z,15.40
2022-11-24T04:05:27.641Z,16.70
2022-11-24T04:06:27.640Z,12.00
2022-11-24T04:07:27.647Z,11.50
2022-11-24T04:08:27.649Z,12.80
2022-11-24T04:09:27.623Z,15.60
2022-11-24T04:10:27.621Z,14.80
2022-11-24T04:11:27.614Z,13.40
2022-11-24T04:12:27.611Z,14.40
2022-11-24T04:13:27.606Z,13.50
2022-11-24T04:14:27.606Z,15.20
2022-11-24T04:15:27.606Z,13.40
2022-11-24T04:16:27.651Z,14.10
2022-11-24T04:17:27.591Z,12.80
2022-11-24T04:18:27.591Z,12.40
2022-11-24T04:19:27.583Z,13.30
2022-11-24T04:20:27.575Z,19.30
2022-11-24T04:21:27.569Z,16.70
2022-11-24T04:22:27.568Z,15.70
2022-11-24T04:23:27.562Z,11.80
2022-11-24T04:24:27.582Z,11.60
2022-11-24T04:25:27.554Z,12.10
2022-11-24T04:26:27.551Z,15.70
2022-11-24T04:27:27.545Z,14.60
2022-11-24T04:28:27.544Z,11.80
2022-11-24T04:29:27.536Z,12.60
2022-11-24T04:30:27.534Z,16.90
2022-11-24T04:31:27.590Z,18.10
2022-11-24T04:32:27.527Z,16.50
2022-11-24T04:33:27.518Z,15.10
2022-11-24T04:34:27.515Z,13.90
2022-11-24T04:35:27.508Z,16.50
2022-11-24T04:36:27.506Z,15.50
2022-11-24T04:37:27.503Z,14.30
2022-11-24T04:39:20.106Z,13.50
2022-11-24T04:39:28.825Z,12.50
2022-11-24T04:40:27.860Z,13.20
2022-11-24T04:41:27.482Z,15.50
2022-11-24T04:42:27.480Z,12.90
2022-11-24T04:43:27.474Z,15.00
2022-11-24T04:44:27.472Z,11.80
2022-11-24T04:45:27.468Z,15.10
2022-11-24T04:46:27.500Z,15.10
2022-11-24T04:47:27.462Z,14.70
2022-11-24T04:48:27.456Z,13.50
2022-11-24T04:49:27.448Z,14.90
2022-11-24T04:50:27.457Z,12.60
2022-11-24T04:51:27.442Z,14.30
2022-11-24T04:52:27.438Z,13.00
2022-11-24T04:53:27.434Z,18.50
2022-11-24T04:54:27.426Z,16.50
2022-11-24T04:55:27.431Z,16.00
2022-11-24T04:56:27.441Z,14.60
2022-11-24T04:57:27.416Z,15.70
2022-11-24T04:58:27.411Z,14.60
2022-11-24T04:59:27.404Z,13.30
2022-11-24T05:00:27.401Z,16.40
2022-11-24T05:01:27.452Z,13.90
2022-11-24T05:02:27.393Z,16.50
2022-11-24T05:03:27.386Z,14.60
2022-11-24T05:04:27.477Z,14.30
2022-11-24T05:05:27.380Z,15.40
2022-11-24T05:06:27.374Z,16.70
2022-11-24T05:07:27.432Z,15.60
2022-11-24T05:08:27.371Z,16.50
2022-11-24T05:09:47.913Z,13.60
2022-11-24T05:10:27.359Z,12.70
2022-11-24T05:11:27.364Z,14.40
2022-11-24T05:12:27.372Z,10.90
2022-11-24T05:13:27.346Z,13.00
2022-11-24T05:14:27.349Z,14.00
2022-11-24T05:15:27.333Z,17.40
2022-11-24T05:16:27.469Z,15.70
2022-11-24T05:17:27.326Z,16.00
2022-11-24T05:18:27.321Z,13.10
2022-11-24T05:19:31.237Z,12.10
2022-11-24T05:20:27.316Z,12.60
2022-11-24T05:21:27.305Z,12.60
2022-11-24T05:22:27.303Z,18.40
2022-11-24T05:23:27.298Z,17.30
2022-11-24T05:24:27.296Z,16.40
2022-11-24T05:25:27.288Z,17.70
2022-11-24T05:26:27.286Z,13.10
2022-11-24T05:27:27.282Z,16.50
2022-11-24T05:28:27.298Z,15.90
2022-11-24T05:29:27.273Z,16.40
2022-11-24T05:30:27.271Z,15.40
2022-11-24T05:31:27.301Z,14.30
2022-11-24T05:32:27.263Z,15.40
2022-11-24T05:33:27.255Z,16.50
2022-11-24T05:34:27.254Z,18.60
2022-11-24T05:35:27.252Z,18.20
2022-11-24T05:36:27.249Z,18.00
2022-11-24T05:37:27.239Z,15.60
2022-11-24T05:38:27.252Z,13.30
2022-11-24T05:39:27.229Z,17.80
2022-11-24T05:40:27.486Z,15.20
2022-11-24T05:41:27.224Z,16.80
2022-11-24T05:42:27.223Z,13.60
2022-11-24T05:43:27.218Z,16.60
2022-11-24T05:44:27.229Z,13.00
2022-11-24T05:45:27.208Z,16.30
2022-11-24T05:46:27.249Z,17.20
2022-11-24T05:47:27.214Z,17.90
2022-11-24T05:48:27.197Z,15.80
2022-11-24T05:49:27.194Z,16.80
2022-11-24T05:50:27.187Z,16.80
2022-11-24T05:51:27.177Z,15.70
2022-11-24T05:52:27.177Z,12.80
2022-11-24T05:53:27.206Z,13.10
2022-11-24T05:54:27.167Z,14.10
2022-11-24T05:55:27.163Z,10.40
2022-11-24T05:56:27.198Z,12.50
2022-11-24T05:57:27.151Z,13.80
2022-11-24T05:58:27.152Z,14.80
2022-11-24T05:59:27.149Z,18.00
2022-11-24T06:00:27.253Z,20.20
2022-11-24T06:01:27.143Z,18.00
2022-11-24T06:02:27.287Z,15.60
2022-11-24T06:03:27.127Z,12.50
2022-11-24T06:04:27.128Z,17.20
2022-11-24T06:05:27.117Z,19.20
2022-11-24T06:06:27.114Z,14.80
2022-11-24T06:07:27.182Z,19.80
2022-11-24T06:08:31.117Z,17.20
2022-11-24T06:09:27.115Z,16.30
2022-11-24T06:10:27.106Z,18.90
2022-11-24T06:11:27.099Z,15.00
2022-11-24T06:12:27.092Z,15.70
2022-11-24T06:13:27.169Z,19.10
2022-11-24T06:14:27.080Z,18.10
2022-11-24T06:15:27.072Z,15.60
2022-11-24T06:16:27.196Z,17.60
2022-11-24T06:17:27.065Z,12.80
2022-11-24T06:18:27.077Z,15.40
2022-11-24T06:19:27.058Z,17.20
2022-11-24T06:20:32.258Z,19.90
2022-11-24T06:21:27.050Z,16.40
2022-11-24T06:22:27.044Z,14.40
2022-11-24T06:23:27.038Z,13.90
2022-11-24T06:24:27.036Z,18.50
2022-11-24T06:25:27.031Z,17.00
2022-11-24T06:26:27.027Z,18.50
2022-11-24T06:27:27.026Z,16.40
2022-11-24T06:28:27.020Z,18.70
2022-11-24T06:29:27.013Z,15.10
2022-11-24T06:30:27.013Z,15.20
2022-11-24T06:31:27.043Z,13.30
2022-11-24T06:32:27.026Z,14.50
2022-11-24T06:33:26.994Z,12.70
2022-11-24T06:34:26.997Z,12.20
2022-11-24T06:35:26.995Z,14.60
2022-11-24T06:36:26.985Z,17.00
2022-11-24T06:37:26.979Z,16.80
2022-11-24T06:38:26.976Z,16.80
2022-11-24T06:39:26.970Z,17.00
2022-11-24T06:40:26.967Z,17.70
2022-11-24T06:41:26.959Z,18.70
2022-11-24T06:42:26.956Z,16.90
2022-11-24T06:43:26.956Z,15.90
2022-11-24T06:44:26.949Z,15.10
2022-11-24T06:45:27.044Z,13.70
2022-11-24T06:46:26.939Z,14.60
2022-11-24T06:47:26.934Z,15.60
2022-11-24T06:48:26.957Z,15.30
2022-11-24T06:49:26.924Z,13.20
2022-11-24T06:50:32.075Z,12.90
2022-11-24T06:51:26.918Z,13.50
2022-11-24T06:52:26.915Z,15.00
2022-11-24T06:53:26.910Z,14.80
2022-11-24T06:54:26.906Z,14.30
2022-11-24T06:55:26.901Z,12.80
2022-11-24T06:56:26.901Z,9.50
2022-11-24T06:57:26.893Z,10.40
2022-11-24T06:58:26.888Z,11.90
2022-11-24T06:59:26.883Z,12.20
2022-11-24T07:00:26.884Z,9.00
2022-11-24T07:01:26.951Z,9.50
2022-11-24T07:02:26.874Z,10.70
2022-11-24T07:03:26.963Z,7.20
2022-11-24T07:04:26.917Z,8.10
2022-11-24T07:05:26.859Z,9.10
2022-11-24T07:06:26.856Z,7.30
2022-11-24T07:07:26.907Z,6.30
2022-11-24T07:08:26.847Z,7.10
2022-11-24T07:09:26.840Z,5.40
2022-11-24T07:10:26.839Z,6.10
2022-11-24T07:11:26.833Z,6.40
2022-11-24T07:12:26.828Z,5.20
2022-11-24T07:13:26.825Z,5.70
2022-11-24T07:14:26.819Z,7.30
2022-11-24T07:15:26.818Z,6.40
2022-11-24T07:16:26.901Z,7.10
2022-11-24T07:17:26.803Z,7.20
2022-11-24T07:18:26.802Z,7.80
2022-11-24T07:19:26.796Z,6.70
2022-11-24T07:20:26.817Z,5.80
2022-11-24T07:21:26.785Z,6.20
2022-11-24T07:22:26.783Z,6.20
2022-11-24T07:23:26.779Z,6.40
2022-11-24T07:24:26.777Z,6.60
2022-11-24T07:25:26.768Z,5.50
2022-11-24T07:26:26.774Z,6.30
2022-11-24T07:27:26.809Z,4.90
2022-11-24T07:28:26.758Z,6.20
2022-11-24T07:29:26.758Z,5.30
2022-11-24T07:30:26.757Z,6.20
2022-11-24T07:31:26.827Z,4.60
2022-11-24T07:32:26.746Z,5.10
2022-11-24T07:33:26.734Z,5.20
2022-11-24T07:34:26.738Z,5.40
2022-11-24T07:35:26.728Z,5.30
2022-11-24T07:36:26.753Z,4.80
2022-11-24T07:37:31.036Z,4.80
2022-11-24T07:38:26.718Z,5.70
2022-11-24T07:39:26.707Z,4.10
2022-11-24T07:40:26.948Z,6.00
2022-11-24T07:41:26.763Z,5.20
2022-11-24T07:42:26.697Z,3.90
2022-11-24T07:43:26.693Z,5.20
2022-11-24T07:44:26.688Z,4.00
2022-11-24T07:45:26.790Z,4.90
2022-11-24T07:46:26.752Z,3.10
2022-11-24T07:47:26.678Z,4.10
2022-11-24T07:48:26.675Z,3.50
2022-11-24T07:49:26.669Z,4.00
2022-11-24T07:50:26.744Z,3.60
2022-11-24T07:51:26.662Z,5.10
2022-11-24T07:52:26.718Z,4.00
2022-11-24T07:53:26.647Z,3.90
2022-11-24T07:54:26.643Z,5.20
2022-11-24T07:55:26.641Z,4.70
2022-11-24T07:56:26.637Z,3.40
2022-11-24T07:57:26.631Z,4.60
2022-11-24T07:58:32.168Z,4.20
2022-11-24T07:59:26.623Z,4.60
2022-11-24T08:00:26.726Z,3.50
2022-11-24T08:01:26.716Z,3.80
2022-11-24T08:02:26.606Z,4.20
2022-11-24T08:03:26.666Z,5.60
2022-11-24T08:04:26.601Z,4.80
2022-11-24T08:05:26.598Z,3.50
2022-11-24T08:06:31.843Z,4.30
2022-11-24T08:07:26.680Z,4.30
2022-11-24T08:08:26.606Z,4.70
2022-11-24T08:09:26.578Z,3.00
2022-11-24T08:10:26.655Z,6.10
2022-11-24T08:11:26.582Z,3.80
2022-11-24T08:12:26.574Z,4.30
2022-11-24T08:13:26.562Z,6.10
2022-11-24T08:14:26.557Z,4.50
2022-11-24T08:15:26.556Z,4.80
2022-11-24T08:16:26.602Z,3.90
2022-11-24T08:17:26.543Z,4.60
2022-11-24T08:18:26.538Z,4.90
2022-11-24T08:19:26.539Z,4.70
2022-11-24T08:20:26.532Z,6.00
2022-11-24T08:21:26.529Z,4.70
2022-11-24T08:22:26.520Z,4.70
2022-11-24T08:23:26.522Z,7.50
2022-11-24T08:24:26.538Z,6.20
2022-11-24T08:25:26.509Z,5.20
2022-11-24T08:26:26.508Z,6.10
2022-11-24T08:27:26.503Z,6.90
2022-11-24T08:28:26.497Z,6.00
2022-11-24T08:29:26.493Z,4.80
2022-11-24T08:30:26.485Z,5.80
2022-11-24T08:31:26.556Z,5.40
2022-11-24T08:32:26.532Z,6.50
2022-11-24T08:33:26.473Z,5.10
2022-11-24T08:34:26.467Z,5.90
2022-11-24T08:35:26.468Z,6.30
2022-11-24T08:36:26.460Z,6.60
2022-11-24T08:37:26.456Z,6.40
2022-11-24T08:38:26.452Z,6.90
2022-11-24T08:39:26.450Z,6.20
2022-11-24T08:40:26.469Z,6.10
2022-11-24T08:41:26.446Z,6.50
2022-11-24T08:42:26.435Z,6.00
2022-11-24T08:43:26.436Z,7.40
2022-11-24T08:44:26.425Z,7.00
2022-11-24T08:45:28.599Z,5.20
2022-11-24T08:46:26.549Z,4.40
2022-11-24T08:47:26.423Z,7.60
2022-11-24T08:48:26.416Z,5.40
2022-11-24T08:49:26.406Z,8.00
2022-11-24T08:50:26.397Z,6.80
2022-11-24T08:51:26.553Z,8.00
2022-11-24T08:52:26.388Z,9.60
2022-11-24T08:53:26.387Z,7.10
2022-11-24T08:54:26.384Z,6.70
2022-11-24T08:55:26.389Z,5.10
2022-11-24T08:56:26.400Z,6.20
2022-11-24T08:57:26.371Z,8.80
2022-11-24T08:58:26.369Z,8.60
2022-11-24T08:59:26.383Z,8.90
2022-11-24T09:00:26.356Z,8.80
2022-11-24T09:01:26.397Z,7.70
2022-11-24T09:02:26.347Z,8.60
2022-11-24T09:03:26.347Z,8.60
2022-11-24T09:04:26.395Z,9.00
2022-11-24T09:05:51.281Z,7.20
2022-11-24T09:06:26.328Z,7.90
2022-11-24T09:07:26.388Z,8.40
2022-11-24T09:08:26.324Z,8.50
2022-11-24T09:09:26.323Z,9.10
2022-11-24T09:10:26.313Z,8.50
2022-11-24T09:11:26.310Z,11.40
2022-11-24T09:12:26.329Z,7.50
2022-11-24T09:13:26.301Z,8.10
2022-11-24T09:14:26.295Z,8.20
2022-11-24T09:15:26.295Z,9.80
2022-11-24T09:16:26.420Z,8.60
2022-11-24T09:17:26.285Z,8.20
2022-11-24T09:18:30.107Z,8.20
2022-11-24T09:19:26.275Z,10.80
2022-11-24T09:20:26.286Z,9.70
2022-11-24T09:21:26.266Z,8.50
2022-11-24T09:22:26.265Z,9.40
2022-11-24T09:23:26.257Z,10.60
2022-11-24T09:24:26.255Z,8.60
2022-11-24T09:25:26.249Z,7.00
2022-11-24T09:26:26.258Z,10.00
2022-11-24T09:27:26.253Z,7.00
2022-11-24T09:28:26.260Z,8.90
2022-11-24T09:29:26.234Z,9.40
2022-11-24T09:30:26.228Z,9.80
2022-11-24T09:31:26.321Z,8.10
2022-11-24T09:32:26.217Z,10.70
2022-11-24T09:33:26.216Z,8.80
2022-11-24T09:34:26.209Z,8.90
2022-11-24T09:35:26.210Z,8.20
2022-11-24T09:36:26.212Z,9.50
2022-11-24T09:37:31.229Z,11.20
2022-11-24T09:38:26.197Z,10.50
2022-11-24T09:39:26.191Z,9.90
2022-11-24T09:40:26.185Z,8.30
2022-11-24T09:41:26.380Z,10.00
2022-11-24T09:42:26.179Z,9.00
2022-11-24T09:43:26.172Z,10.10
2022-11-24T09:44:26.197Z,11.70
2022-11-24T09:45:48.989Z,10.40
2022-11-24T09:46:26.208Z,9.80
2022-11-24T09:47:26.160Z,10.00
2022-11-24T09:48:26.152Z,11.40
2022-11-24T09:49:26.147Z,8.70
2022-11-24T09:50:26.144Z,9.80
2022-11-24T09:51:26.141Z,8.20
2022-11-24T09:52:26.135Z,7.50
2022-11-24T09:53:26.130Z,11.50
2022-11-24T09:54:26.124Z,8.10
2022-11-24T09:55:26.123Z,9.30
2022-11-24T09:56:26.121Z,8.60
2022-11-24T09:57:26.112Z,8.70
2022-11-24T09:58:26.137Z,8.90
2022-11-24T09:59:26.104Z,10.40
2022-11-24T10:00:26.120Z,9.30
2022-11-24T10:01:26.176Z,9.30
2022-11-24T10:02:26.089Z,9.90
2022-11-24T10:03:26.088Z,9.80
2022-11-24T10:04:26.163Z,8.20
2022-11-24T10:05:26.080Z,12.20
2022-11-24T10:06:26.077Z,10.20
2022-11-24T10:07:26.096Z,8.70
2022-11-24T10:08:26.063Z,12.80
2022-11-24T10:09:26.069Z,8.40
2022-11-24T10:10:26.135Z,8.80
2022-11-24T10:11:26.055Z,8.90
2022-11-24T10:12:26.050Z,9.20
2022-11-24T10:13:26.058Z,9.50
2022-11-24T10:14:26.047Z,9.40
2022-11-24T10:15:26.037Z,9.00
2022-11-24T10:16:26.135Z,9.70
2022-11-24T10:17:26.032Z,10.40
2022-11-24T10:18:26.024Z,11.00
2022-11-24T10:19:36.256Z,9.20
2022-11-24T10:20:26.013Z,9.10
2022-11-24T10:21:26.011Z,10.60
2022-11-24T10:22:26.007Z,8.00
2022-11-24T10:23:26.003Z,9.00
2022-11-24T10:24:25.997Z,8.80
2022-11-24T10:25:26.001Z,8.50
2022-11-24T10:26:25.988Z,11.10
2022-11-24T10:27:25.987Z,10.10
2022-11-24T10:28:25.988Z,11.20
2022-11-24T10:29:25.985Z,8.30
2022-11-24T10:30:25.972Z,8.40
2022-11-24T10:31:25.993Z,11.30
2022-11-24T10:32:25.988Z,8.50
2022-11-24T10:33:30.614Z,8.50
2022-11-24T10:34:25.956Z,9.00
2022-11-24T10:35:25.955Z,10.70
2022-11-24T10:36:25.946Z,9.40
2022-11-24T10:37:26.049Z,8.00
2022-11-24T10:38:25.939Z,9.90
2022-11-24T10:39:25.936Z,7.90
2022-11-24T10:40:49.109Z,9.20
2022-11-24T10:41:25.928Z,7.40
2022-11-24T10:42:25.921Z,11.00
2022-11-24T10:43:25.923Z,10.50
2022-11-24T10:44:25.913Z,8.70
2022-11-24T10:45:25.911Z,12.00
2022-11-24T10:46:26.123Z,9.60
2022-11-24T10:47:25.910Z,8.60
2022-11-24T10:48:25.920Z,10.10
2022-11-24T10:49:25.893Z,10.80
2022-11-24T10:50:25.895Z,8.50
2022-11-24T10:51:25.909Z,10.10
2022-11-24T10:52:25.920Z,9.20
2022-11-24T10:53:25.885Z,9.50
2022-11-24T10:54:25.876Z,8.70
2022-11-24T10:55:25.871Z,11.60
2022-11-24T10:56:25.864Z,8.30
2022-11-24T10:57:25.862Z,8.90
2022-11-24T10:58:25.855Z,9.40
2022-11-24T10:59:25.858Z,8.80
2022-11-24T11:00:25.849Z,9.70
2022-11-24T11:01:25.933Z,9.00
2022-11-24T11:02:25.876Z,9.70
2022-11-24T11:03:25.837Z,8.50
2022-11-24T11:04:25.854Z,11.30
2022-11-24T11:05:25.829Z,9.30
2022-11-24T11:06:25.821Z,9.60
2022-11-24T11:07:25.886Z,10.60
2022-11-24T11:08:25.812Z,9.20
2022-11-24T11:09:25.822Z,9.60
2022-11-24T11:10:25.806Z,10.70
2022-11-24T11:11:25.803Z,10.30
2022-11-24T11:12:43.317Z,10.10
2022-11-24T11:13:25.802Z,10.40
2022-11-24T11:14:25.789Z,10.80
2022-11-24T11:15:25.786Z,9.40
2022-11-24T11:16:25.875Z,11.20
2022-11-24T11:17:25.777Z,12.90
2022-11-24T11:18:25.773Z,11.40
2022-11-24T11:19:48.015Z,10.30
2022-11-24T11:20:25.792Z,9.80
2022-11-24T11:21:25.762Z,11.70
2022-11-24T11:22:25.764Z,9.10
2022-11-24T11:23:25.754Z,11.80
2022-11-24T11:24:25.748Z,11.80
2022-11-24T11:25:25.743Z,10.90
2022-11-24T11:26:25.740Z,9.20
2022-11-24T11:27:25.739Z,10.20
2022-11-24T11:28:25.733Z,9.70
2022-11-24T11:31:25.720Z,7.90
2022-11-24T11:34:30.161Z,10.60
2022-11-24T11:35:25.714Z,9.50
2022-11-24T11:36:25.722Z,10.10
2022-11-24T11:37:25.697Z,10.10
2022-11-24T11:38:25.687Z,11.30
2022-11-24T11:39:25.690Z,10.10
2022-11-24T11:40:25.687Z,10.30
2022-11-24T11:41:25.682Z,10.20
2022-11-24T11:42:59.883Z,11.40
2022-11-24T11:43:25.672Z,10.70
2022-11-24T11:44:25.667Z,11.00
2022-11-24T11:45:25.753Z,8.40
2022-11-24T11:46:25.744Z,10.90
2022-11-24T11:47:25.658Z,12.50
2022-11-24T11:48:25.649Z,10.00
2022-11-24T11:49:25.645Z,9.30
2022-11-24T11:50:25.682Z,10.70
2022-11-24T11:51:25.810Z,11.00
2022-11-24T11:52:25.662Z,10.30
2022-11-24T11:53:25.629Z,8.40
2022-11-24T11:54:25.626Z,13.00
2022-11-24T11:55:25.619Z,9.60
2022-11-24T11:56:25.623Z,10.20
2022-11-24T11:57:25.617Z,11.30
2022-11-24T11:58:25.611Z,8.80
2022-11-24T11:59:25.618Z,9.60
2022-11-24T12:00:25.604Z,11.40
2022-11-24T12:01:25.595Z,9.80
2022-11-24T12:02:25.717Z,7.20
2022-11-24T12:03:25.719Z,11.40
2022-11-24T12:04:25.598Z,9.10
2022-11-24T12:05:25.579Z,10.60
2022-11-24T12:06:25.576Z,11.70
2022-11-24T12:07:25.635Z,11.70
2022-11-24T12:08:25.592Z,9.40
2022-11-24T12:09:25.565Z,11.20
2022-11-24T12:10:25.569Z,12.60
2022-11-24T12:11:25.556Z,11.80
2022-11-24T12:12:25.549Z,10.20
2022-11-24T12:13:25.545Z,11.80
2022-11-24T12:14:25.550Z,11.30
2022-11-24T12:15:25.539Z,10.50
2022-11-24T12:16:25.628Z,12.00
2022-11-24T12:17:25.531Z,10.80
2022-11-24T12:18:55.724Z,10.10
2022-11-24T12:19:25.521Z,9.40
2022-11-24T12:20:25.525Z,8.70
2022-11-24T12:21:26.822Z,11.00
2022-11-24T12:22:25.512Z,9.00
2022-11-24T12:23:25.509Z,9.40
2022-11-24T12:24:25.573Z,9.90
2022-11-24T12:25:25.499Z,10.40
2022-11-24T12:26:25.494Z,10.70
2022-11-24T12:27:25.495Z,10.00
2022-11-24T12:28:25.488Z,13.70
2022-11-24T12:29:25.482Z,11.20
2022-11-24T12:30:25.481Z,8.80
2022-11-24T12:31:25.592Z,10.40
2022-11-24T12:32:25.473Z,12.90
2022-11-24T12:33:25.468Z,11.80
2022-11-24T12:34:25.466Z,9.70
2022-11-24T12:35:25.458Z,11.40
2022-11-24T12:36:25.454Z,9.20
2022-11-24T12:37:25.452Z,10.90
2022-11-24T12:38:25.446Z,11.30
2022-11-24T12:39:25.442Z,10.50
2022-11-24T12:40:25.464Z,13.10
2022-11-24T12:41:41.322Z,9.80
2022-11-24T12:42:25.430Z,12.00
2022-11-24T12:43:25.425Z,10.30
2022-11-24T12:44:25.423Z,12.60
2022-11-24T12:45:25.427Z,10.30
2022-11-24T12:46:25.972Z,11.90
2022-11-24T12:47:25.409Z,10.40
2022-11-24T12:48:25.410Z,8.50
2022-11-24T12:49:25.403Z,8.70
2022-11-24T12:50:25.400Z,11.10
2022-11-24T12:51:25.397Z,10.20
2022-11-24T12:52:25.394Z,10.70
2022-11-24T12:53:25.401Z,10.80
2022-11-24T12:54:25.387Z,11.60
2022-11-24T12:55:25.380Z,9.30
2022-11-24T12:56:25.396Z,10.70
2022-11-24T12:57:25.370Z,7.30
2022-11-24T12:58:25.372Z,9.40
2022-11-24T12:59:25.365Z,9.10
2022-11-24T13:00:25.360Z,11.80
2022-11-24T13:01:25.511Z,13.90
2022-11-24T13:02:25.473Z,9.80
2022-11-24T13:03:25.348Z,10.60
2022-11-24T13:04:25.344Z,11.80
2022-11-24T13:05:25.337Z,10.00
2022-11-24T13:06:25.343Z,8.70